Latest Weather Observations for Eucla

IDW60801

Issued at 4:23 pm WST Saturday 16 October 2021 (issued every 10 minutes, with the page automatically refreshed every 10 minutes)

About weather observations | Map of weather stations | Latest weather observations for WA | Other Formats
Station Details ID: 011003 Name: EUCLA Lat: -31.68 Lon: 128.90 Height: 93.1 m
Data from the previous 72 hours. | See also: Recent months at Eucla
Date/Time
WST
Temp
°C
App
Temp
°C
Dew
Point
°C
Rel
Hum
%
Delta-T
°C
Wind Press
QNH
hPa
Press
MSL
hPa
Rain since
9am
mm
Dir  Spd
km/h
Gust
km/h
Spd
kts
Gust
kts
16/04:00pm 17.8 13.2 10.9 64 3.7 E 26 37 14 20 1011.1 1010.9 0.0
16/03:30pm 18.7 14.9 11.0 61 4.2 E 22 33 12 18 1011.1 1010.9 0.0
16/03:00pm 18.3 14.7 11.8 66 3.6 ESE 22 35 12 19 1011.3 1011.1 0.0
16/02:30pm 19.4 14.6 10.4 56 4.9 ESE 26 39 14 21 1011.3 1011.1 0.0
16/02:00pm 19.7 15.8 10.9 57 4.8 ESE 22 32 12 17 1011.6 1011.4 0.0
16/01:30pm 20.0 15.8 11.2 57 4.8 ESE 24 35 13 19 1012.1 1011.9 0.0
16/01:00pm 20.5 16.2 10.6 53 5.4 ESE 24 33 13 18 1012.4 1012.2 0.0
16/12:30pm 20.5 16.5 10.3 52 5.5 ESE 22 33 12 18 1012.8 1012.6 0.0
16/12:00pm 20.3 16.0 10.7 54 5.2 ESE 24 32 13 17 1013.2 1013.0 0.0
16/11:30am 20.4 16.9 10.8 54 5.3 ESE 20 28 11 15 1013.9 1013.7 0.0
16/11:00am 21.0 18.9 11.1 53 5.5 E 13 28 7 15 1014.3 1014.1 0.0
16/10:30am 21.7 19.7 10.2 48 6.3 NNE 11 20 6 11 1014.9 1014.7 0.0
16/10:00am 23.7 19.8 6.9 34 8.7 N 17 24 9 13 1015.3 1015.1 0.0
16/09:30am 21.5 17.3 7.3 40 7.3 NNE 19 30 10 16 1016.0 1015.9 0.0
16/09:00am 20.7 16.6 7.7 43 6.7 NNE 19 30 10 16 1016.5 1016.4 0.0
16/08:30am 19.4 15.1 7.8 47 6.0 NNE 20 32 11 17 1016.8 1016.7 0.0
16/08:00am 18.0 13.4 8.0 52 5.1 NNE 22 33 12 18 1016.9 1016.8 0.0
16/07:30am 16.1 11.0 7.8 58 4.2 NNE 24 33 13 18 1017.0 1016.9 0.0
16/07:00am 14.6 9.9 7.9 64 3.3 NE 22 35 12 19 1017.0 1016.9 0.0
16/06:30am 12.8 8.1 7.9 72 2.4 NE 22 35 12 19 1017.1 1017.0 0.0
16/06:00am 10.8 7.2 8.2 84 1.3 NE 17 30 9 16 1017.3 1017.2 0.0
16/05:30am 9.2 5.4 7.6 90 0.8 NNE 17 26 9 14 1017.3 1017.2 0.0
16/05:00am 8.4 5.3 7.2 92 0.6 NNE 13 19 7 10 1017.3 1017.2 0.0
16/04:30am 8.2 5.0 7.0 92 0.6 NE 13 19 7 10 1016.8 1016.7 0.0
16/04:00am 8.3 5.2 7.1 92 0.6 NE 13 17 7 9 1016.8 1016.7 0.0
16/03:30am 8.5 5.4 7.3 92 0.6 NE 13 19 7 10 1016.6 1016.5 0.0
16/03:00am 8.8 6.1 7.4 91 0.7 NNE 11 15 6 8 1016.7 1016.6 0.0
16/02:30am 9.4 6.8 7.8 90 0.8 NE 11 13 6 7 1016.6 1016.5 0.0
16/02:00am 9.4 6.8 7.8 90 0.8 NE 11 17 6 9 1016.8 1016.7 0.0
16/01:30am 9.3 6.7 7.6 89 0.8 ENE 11 15 6 8 1017.0 1016.9 0.0
16/01:00am 9.3 6.6 7.4 88 0.9 NE 11 13 6 7 1017.5 1017.4 0.0
16/12:30am 9.5 6.8 7.3 86 1.0 NE 11 13 6 7 1017.9 1017.8 0.0
16/12:00am 10.0 7.7 7.6 85 1.2 NE 9 11 5 6 1018.3 1018.2 0.0
 
Date/Time
WST
Temp
°C
App
Temp
°C
Dew
Point
°C
Rel
Hum
%
Delta-T
°C
Wind Press
QNH
hPa
Press
MSL
hPa
Rain since
9am
mm
Dir  Spd
km/h
Gust
km/h
Spd
kts
Gust
kts
15/11:30pm 11.5 9.4 8.4 81 1.5 ENE 9 11 5 6 1018.5 1018.4 0.0
15/11:00pm 12.3 9.9 8.8 79 1.8 E 11 15 6 8 1018.7 1018.6 0.0
15/10:30pm 12.6 10.3 8.9 78 1.9 E 11 17 6 9 1019.1 1018.9 0.0
15/10:00pm 12.7 10.3 8.8 77 2.0 E 11 17 6 9 1019.2 1019.0 0.0
15/09:30pm 13.1 10.4 8.8 75 2.2 E 13 20 7 11 1019.3 1019.1 0.0
15/09:00pm 13.1 9.9 8.6 74 2.3 ESE 15 26 8 14 1019.5 1019.3 0.0
15/08:30pm 13.0 10.1 8.3 73 2.3 ESE 13 20 7 11 1019.6 1019.4 0.0
15/08:00pm 13.3 10.1 8.4 72 2.4 ESE 15 22 8 12 1019.7 1019.5 0.0
15/07:30pm 13.3 10.0 8.0 70 2.6 ESE 15 22 8 12 1019.5 1019.3 0.0
15/07:00pm 13.4 10.4 7.8 69 2.8 ESE 13 24 7 13 1019.4 1019.2 0.0
15/06:30pm 13.4 10.3 7.2 66 3.0 ESE 13 19 7 10 1019.3 1019.1 0.0
15/06:00pm 13.7 10.4 6.6 62 3.4 ESE 13 19 7 10 1018.9 1018.8 0.0
15/05:30pm 14.1 10.3 6.0 58 3.9 ESE 15 22 8 12 1018.8 1018.7 0.0
15/05:00pm 14.8 10.7 6.1 56 4.2 SE 17 24 9 13 1018.5 1018.4 0.0
15/04:30pm 15.5 11.4 6.0 53 4.6 SE 17 26 9 14 1018.4 1018.3 0.0
15/04:00pm 16.2 11.6 5.5 49 5.1 SE 19 30 10 16 1018.3 1018.2 0.0
15/03:30pm 16.4 12.1 5.4 48 5.3 SE 17 28 9 15 1018.3 1018.2 0.0
15/03:00pm 16.9 12.3 5.8 48 5.4 SE 19 28 10 15 1018.1 1018.0 0.0
15/02:30pm 16.5 12.3 5.8 49 5.2 SE 17 28 9 15 1018.1 1018.0 0.0
15/02:00pm 17.8 13.5 7.2 50 5.3 SE 19 28 10 15 1018.2 1018.1 0.0
15/01:30pm 17.7 13.2 6.9 49 5.4 SSE 20 30 11 16 1018.6 1018.5 0.0
15/01:00pm 16.8 12.9 6.9 52 4.9 SE 17 28 9 15 1019.1 1018.9 0.0
15/12:30pm 16.9 12.3 6.7 51 5.1 SE 20 32 11 17 1019.4 1019.2 0.0
15/12:00pm 17.4 13.5 7.2 51 5.1 SE 17 28 9 15 1019.6 1019.4 0.0
15/11:30am 18.1 13.9 7.5 50 5.4 SE 19 32 10 17 1020.0 1019.8 0.0
15/11:00am 18.7 14.4 7.2 47 5.8 SE 19 28 10 15 1020.2 1020.0 0.0
15/10:30am 17.2 13.0 5.8 47 5.6 SE 17 24 9 13 1020.5 1020.3 0.0
15/10:00am 17.2 13.5 6.4 49 5.3 SSE 15 22 8 12 1020.7 1020.5 0.0
15/09:30am 16.7 13.0 6.5 51 5.0 SSE 15 26 8 14 1020.9 1020.7 0.0
15/09:00am 16.5 13.4 7.2 54 4.6 SSE 13 22 7 12 1021.1 1020.9 0.0
15/08:30am 16.4 12.9 7.3 55 4.6 SSE 15 20 8 11 1021.2 1021.0 0.0
15/08:00am 16.0 12.1 7.2 56 4.4 SE 17 26 9 14 1021.3 1021.1 0.0
15/07:30am 15.4 12.0 7.7 60 3.9 SSE 15 22 8 12 1021.3 1021.1 0.0
15/07:00am 14.6 11.6 7.9 64 3.3 SE 13 19 7 10 1021.2 1021.0 0.0
15/06:30am 14.8 11.6 8.3 65 3.3 SSE 15 20 8 11 1021.0 1020.8 0.0
15/06:00am 14.5 11.2 8.2 66 3.2 SSE 15 26 8 14 1020.7 1020.5 0.0
15/05:30am 14.1 11.0 8.9 71 2.6 SSE 15 20 8 11 1020.5 1020.3 0.0
15/05:00am 13.8 11.0 8.6 71 2.6 SSE 13 24 7 13 1020.2 1020.0 0.0
15/04:30am 13.7 11.3 8.7 72 2.5 SSE 11 17 6 9 1020.0 1019.8 0.0
15/04:00am 13.8 10.8 9.3 74 2.3 SSE 15 22 8 12 1019.8 1019.6 0.0
15/03:30am 13.7 10.7 9.2 74 2.3 S 15 20 8 11 1019.5 1019.3 0.0
15/03:00am 13.7 10.9 8.7 72 2.5 S 13 20 7 11 1019.4 1019.2 0.0
15/02:30am 13.9 11.2 8.9 72 2.5 S 13 19 7 10 1019.2 1019.0 0.0
15/02:00am 13.7 11.0 9.0 73 2.4 S 13 20 7 11 1019.3 1019.1 0.0
15/01:30am 13.6 10.9 9.1 74 2.3 S 13 19 7 10 1019.3 1019.1 0.0
15/01:00am 13.5 11.5 10.3 81 1.7 SSE 11 19 6 10 1019.4 1019.2 0.0
15/12:30am 13.6 11.5 9.8 78 2.0 S 11 22 6 12 1019.5 1019.3 0.0
15/12:00am 13.6 11.6 10.0 79 1.9 SSW 11 19 6 10 1019.5 1019.3 0.0
 
Date/Time
WST
Temp
°C
App
Temp
°C
Dew
Point
°C
Rel
Hum
%
Delta-T
°C
Wind Press
QNH
hPa
Press
MSL
hPa
Rain since
9am
mm
Dir  Spd
km/h
Gust
km/h
Spd
kts
Gust
kts
14/11:30pm 13.7 11.3 10.1 79 1.9 S 13 19 7 10 1019.8 1019.6 0.0
14/11:00pm 13.6 10.7 9.8 78 2.0 S 15 20 8 11 1019.9 1019.7 0.0
14/10:30pm 13.5 11.0 9.7 78 2.0 SSW 13 19 7 10 1019.9 1019.7 0.0
14/10:00pm 13.3 10.7 9.4 77 2.0 SSW 13 19 7 10 1020.1 1019.9 0.0
14/09:30pm 13.1 11.3 9.5 79 1.8 SSW 9 19 5 10 1020.2 1020.0 0.0
14/09:00pm 12.1 9.9 8.0 76 2.0 SSW 9 15 5 8 1020.4 1020.2 0.0
14/08:30pm 12.5 10.0 8.4 76 2.0 S 11 15 6 8 1020.5 1020.3 0.0
14/08:00pm 12.8 9.8 7.9 72 2.4 S 13 17 7 9 1020.3 1020.1 0.0
14/07:30pm 13.7 10.5 8.3 70 2.7 S 15 26 8 14 1020.1 1019.9 0.0
14/07:00pm 13.7 10.1 8.3 70 2.7 SSW 17 26 9 14 1019.8 1019.6 0.0
14/06:30pm 13.7 10.2 8.7 72 2.5 SSW 17 26 9 14 1019.6 1019.4 0.0
14/06:00pm 13.9 10.3 8.5 70 2.7 SSW 17 28 9 15 1019.2 1019.0 0.0
14/05:30pm 14.0 10.3 8.0 67 3.0 SSW 17 28 9 15 1018.8 1018.7 0.0
14/05:00pm 14.3 9.6 7.6 64 3.3 SSW 22 35 12 19 1018.6 1018.5 0.0
14/04:30pm 14.3 9.7 6.6 60 3.7 SSW 20 33 11 18 1018.3 1018.2 0.0
14/04:00pm 14.5 10.6 8.7 68 2.9 SSW 19 32 10 17 1018.1 1018.0 0.0
14/03:30pm 15.1 10.9 8.1 63 3.5 SSW 20 32 11 17 1018.0 1017.9 0.0
14/03:00pm 15.6 10.9 7.9 60 3.9 SSW 22 32 12 17 1017.8 1017.7 0.0
14/02:30pm 16.2 10.7 6.1 51 4.9 SSW 24 37 13 20 1017.6 1017.5 0.0
14/02:00pm 16.4 11.4 6.5 52 4.9 SSW 22 37 12 20 1017.6 1017.5 0.0
14/01:30pm 16.5 11.7 7.2 54 4.6 SW 22 41 12 22 1017.6 1017.5 0.0
14/01:00pm 16.2 11.2 6.6 53 4.7 SSW 22 37 12 20 1017.8 1017.7 0.0
14/12:30pm 15.8 11.1 7.6 58 4.1 SSW 22 32 12 17 1017.9 1017.8 0.0
14/12:00pm 16.9 11.7 7.3 53 4.8 SSW 24 35 13 19 1017.9 1017.8 0.0
14/11:30am 16.9 11.1 6.1 49 5.3 SSW 26 39 14 21 1018.1 1018.0 0.0
14/11:00am 16.9 11.3 5.5 47 5.5 SSW 24 37 13 20 1018.2 1018.1 0.0
14/10:30am 16.7 10.8 5.6 48 5.4 SSW 26 39 14 21 1018.2 1018.1 0.0
14/10:00am 17.0 10.3 5.6 47 5.5 SSW 30 44 16 24 1018.2 1018.1 0.0
14/09:30am 14.1 9.1 7.9 66 3.1 SSW 24 33 13 18 1018.4 1018.3 0.0
14/09:00am 16.0 10.1 5.6 50 5.0 SSW 26 43 14 23 1018.1 1018.0 2.0
14/08:30am 16.2 10.3 5.8 50 5.0 SSW 26 39 14 21 1017.8 1017.7 2.0
14/08:00am 15.0 9.5 6.0 55 4.3 SSW 24 37 13 20 1017.6 1017.5 2.0
14/07:30am 15.3 9.3 5.2 51 4.8 SSW 26 44 14 24 1017.1 1017.0 2.0
14/07:00am 13.9 8.2 6.7 62 3.5 SSW 26 41 14 22 1016.8 1016.7 2.0
14/06:30am 14.1 8.7 6.2 59 3.8 SSW 24 37 13 20 1016.6 1016.5 2.0
14/06:00am 12.9 7.7 5.3 60 3.5 SSW 22 35 12 19 1016.3 1016.2 2.0
14/05:30am 12.6 7.7 5.1 60 3.5 SSW 20 35 11 19 1015.8 1015.7 2.0
14/05:00am 12.2 6.9 4.9 61 3.4 SSW 22 39 12 21 1015.4 1015.2 2.0
14/04:30am 12.2 7.0 5.6 64 3.1 SSW 22 37 12 20 1015.1 1014.9 2.0
14/04:00am 12.3 6.6 5.0 61 3.4 SSW 24 35 13 19 1015.0 1014.8 2.0
14/03:30am 12.2 5.9 5.8 65 3.0 SSW 28 43 15 23 1014.7 1014.5 2.0
14/03:00am 12.3 6.7 7.0 70 2.6 SSW 26 41 14 22 1014.5 1014.3 2.0
14/02:30am 12.5 7.4 7.6 72 2.4 SSW 24 35 13 19 1014.3 1014.1 2.0
14/02:00am 12.5 6.5 5.4 62 3.3 SW 26 43 14 23 1014.1 1013.9 2.0
14/01:30am 12.4 6.7 6.7 68 2.7 SSW 26 46 14 25 1014.1 1013.9 2.0
14/01:00am 12.5 8.0 7.0 69 2.7 SW 20 33 11 18 1014.1 1013.9 2.0
14/12:30am 12.4 6.6 6.2 66 2.9 SSW 26 48 14 26 1014.1 1013.9 2.0
14/12:01am 12.7 6.4 5.8 63 3.3 SW 28 46 15 25 1014.0 1013.8 2.0
14/12:00am 12.6 6.7 6.0 64 3.1 SW 26 41 14 22 1014.0 1013.8 2.0
 
Date/Time
WST
Temp
°C
App
Temp
°C
Dew
Point
°C
Rel
Hum
%
Delta-T
°C
Wind Press
QNH
hPa
Press
MSL
hPa
Rain since
9am
mm
Dir  Spd
km/h
Gust
km/h
Spd
kts
Gust
kts
13/11:30pm 12.6 7.1 7.5 71 2.5 SW 26 39 14 21 1014.5 1014.3 2.0
13/11:00pm 12.2 7.1 7.7 74 2.2 SW 24 37 13 20 1014.5 1014.3 2.0
13/10:30pm 12.4 5.6 7.9 74 2.2 SW 33 54 18 29 1014.5 1014.3 2.0
13/10:21pm 12.2 6.6 8.7 79 1.8 SW 28 50 15 27 1014.4 1014.2 2.0
13/10:00pm 11.6 7.7 8.8 83 1.4 SW 19 39 10 21 1014.6 1014.4 2.0
13/09:30pm 11.4 6.7 9.3 87 1.1 SW 24 39 13 21 1014.7 1014.5 2.0
13/09:00pm 12.2 6.7 9.0 81 1.6 SW 28 43 15 23 1014.7 1014.5 1.6
13/08:30pm 12.5 8.0 8.4 76 2.0 WSW 22 39 12 21 1014.6 1014.4 1.6
13/08:00pm 12.2 7.0 8.7 79 1.7 WSW 26 39 14 21 1014.6 1014.4 1.6
13/07:32pm 12.0 6.5 9.0 82 1.5 WSW 28 48 15 26 1014.4 1014.2 1.6
13/07:30pm 11.9 6.8 9.1 83 1.4 WSW 26 43 14 23 1014.4 1014.2 1.6
13/07:00pm 12.9 8.4 8.4 74 2.2 WSW 22 35 12 19 1014.1 1013.9 1.2
13/06:35pm 13.4 7.5 7.4 67 2.9 WSW 28 48 15 26 1013.9 1013.7 1.2
13/06:30pm 13.1 7.9 7.1 67 2.9 WSW 24 48 13 26 1013.8 1013.6 1.2
13/06:00pm 13.2 7.4 8.1 71 2.5 WSW 28 44 15 24 1013.5 1013.3 1.2
13/05:30pm 13.9 7.3 8.5 70 2.7 SW 33 57 18 31 1013.4 1013.2 1.2
13/05:00pm 14.5 7.7 7.5 63 3.5 SW 33 52 18 28 1013.0 1012.8 1.2
13/04:30pm 15.1 9.3 7.9 62 3.6 SW 28 46 15 25 1012.8 1012.6 1.2

Other formats

Comma delimited format used in spreadsheet applications
http://www.bom.gov.au/fwo/IDW60801/IDW60801.94647.axf

JavaScript Object Notation format (JSON) in row-major order
http://www.bom.gov.au/fwo/IDW60801/IDW60801.94647.json

Data quality

Most of these data are generated automatically and are frequently updated. Quality checks on data are not normally performed. It is possible for incorrect values to appear. Refer to information at About Latest Weather Observations and please check the disclaimer before using these data.